Time;durP1;ratioP1;P1;durP2;ratioP2;P2;SDS_P1;SDS_P2;PMS_P1;PMS_P2;Temp;Humidity;BMP_temperature;BMP_pressure;BME280_temperature;BME280_humidity;BME280_pressure;Samples;Min_cycle;Max_cycle;Signal;HPM_P1;HPM_P2
2021/09/09 00:02:10;;;;;;;14.37;9.97;;;19.20;99.90;;;;;;5094860;28;20457;-81
2021/09/09 00:04:38;;;;;;;15.73;10.13;;;19.20;99.90;;;;;;5094952;28;20469;-82
2021/09/09 00:07:05;;;;;;;15.43;11.33;;;19.10;99.90;;;;;;5096964;28;20826;-81
2021/09/09 00:09:32;;;;;;;12.60;9.90;;;19.10;99.90;;;;;;5092877;28;20950;-82
2021/09/09 00:12:00;;;;;;;16.90;11.23;;;19.10;99.90;;;;;;5092352;28;20609;-83
2021/09/09 00:14:28;;;;;;;12.60;10.23;;;19.10;99.90;;;;;;5096233;28;20456;-80
2021/09/09 00:16:56;;;;;;;15.23;10.60;;;19.00;99.90;;;;;;5094635;28;20461;-81
2021/09/09 00:19:24;;;;;;;18.17;11.27;;;19.00;99.90;;;;;;5091336;28;20466;-82
2021/09/09 00:21:51;;;;;;;19.03;11.03;;;19.00;99.90;;;;;;5088469;28;20464;-82
2021/09/09 00:24:18;;;;;;;16.53;11.60;;;18.90;99.90;;;;;;5102091;28;20968;-83
2021/09/09 00:26:45;;;;;;;20.57;11.73;;;18.90;99.90;;;;;;5099046;28;20897;-80
2021/09/09 00:29:12;;;;;;;21.80;11.07;;;18.90;99.90;;;;;;5097992;28;20476;-81
2021/09/09 00:31:39;;;;;;;16.33;12.10;;;18.90;99.90;;;;;;5098970;28;20491;-82
2021/09/09 00:34:06;;;;;;;13.43;10.77;;;18.90;99.90;;;;;;5100176;28;20941;-81
2021/09/09 00:36:34;;;;;;;18.40;11.67;;;18.90;99.90;;;;;;5095691;28;20452;-83
2021/09/09 00:39:02;;;;;;;18.80;12.73;;;18.80;99.90;;;;;;5094622;28;20459;-82
2021/09/09 00:41:30;;;;;;;18.73;11.63;;;18.80;99.90;;;;;;5096540;28;20895;-81
2021/09/09 00:43:58;;;;;;;18.47;11.27;;;18.80;99.90;;;;;;5099027;28;20458;-82
2021/09/09 00:46:26;;;;;;;19.57;12.77;;;18.90;99.90;;;;;;5097394;28;20465;-80
2021/09/09 00:48:53;;;;;;;20.40;11.27;;;18.90;99.90;;;;;;5098519;28;20837;-82
2021/09/09 00:51:20;;;;;;;18.87;11.27;;;18.90;99.90;;;;;;5096799;28;20576;-82
2021/09/09 00:53:50;;;;;;;16.83;10.90;;;18.90;99.90;;;;;;5099511;28;20461;-83
2021/09/09 00:56:19;;;;;;;16.77;11.77;;;18.90;99.90;;;;;;5100109;28;20462;-81
2021/09/09 00:58:48;;;;;;;18.00;11.53;;;18.90;99.90;;;;;;5097734;28;20463;-83
2021/09/09 01:01:15;;;;;;;19.90;11.77;;;18.90;99.90;;;;;;5098070;28;20462;-80
2021/09/09 01:03:42;;;;;;;16.57;12.40;;;18.90;99.90;;;;;;5091032;28;20472;-82
2021/09/09 01:06:10;;;;;;;21.23;12.10;;;18.90;99.90;;;;;;5092792;28;20464;-81
2021/09/09 01:08:38;;;;;;;21.70;11.87;;;18.90;99.90;;;;;;5096456;28;20472;-83
2021/09/09 01:11:08;;;;;;;23.40;11.77;;;18.90;99.90;;;;;;5089496;28;20492;-81
2021/09/09 01:13:35;;;;;;;24.23;11.70;;;18.90;99.90;;;;;;5097871;28;20553;-81
2021/09/09 01:16:04;;;;;;;22.10;11.40;;;18.90;99.90;;;;;;5096162;28;20476;-81
2021/09/09 01:18:31;;;;;;;23.17;11.93;;;18.90;99.90;;;;;;5103359;28;20464;-81
2021/09/09 01:20:58;;;;;;;24.10;13.13;;;18.90;99.90;;;;;;5097576;28;20838;-80
2021/09/09 01:23:27;;;;;;;21.10;11.50;;;19.00;99.90;;;;;;5104784;28;20469;-81
2021/09/09 01:25:55;;;;;;;20.87;11.00;;;18.90;99.90;;;;;;5097344;28;20465;-83
2021/09/09 01:28:22;;;;;;;16.90;11.80;;;19.00;99.90;;;;;;5097900;28;20488;-81
2021/09/09 01:30:49;;;;;;;19.53;11.60;;;19.00;99.90;;;;;;5095624;28;20497;-83
2021/09/09 01:33:16;;;;;;;24.90;11.17;;;19.00;99.90;;;;;;5100541;28;20474;-81
2021/09/09 01:35:44;;;;;;;14.40;11.13;;;19.00;99.90;;;;;;5095975;28;20472;-81
2021/09/09 01:38:20;;;;;;;25.90;11.40;;;19.00;99.90;;;;;;5093697;28;20466;-82
2021/09/09 01:40:47;;;;;;;20.20;13.33;;;19.00;99.90;;;;;;5092529;28;20590;-82
2021/09/09 01:43:16;;;;;;;19.37;11.83;;;19.00;99.90;;;;;;5090951;28;20456;-80
2021/09/09 01:45:43;;;;;;;21.30;11.80;;;18.90;99.90;;;;;;5097417;28;20474;-83
2021/09/09 01:48:11;;;;;;;13.17;11.03;;;18.90;99.90;;;;;;5090033;28;20463;-81
2021/09/09 01:50:39;;;;;;;23.60;11.53;;;18.90;99.90;;;;;;5095350;28;20465;-83
2021/09/09 01:53:06;;;;;;;18.17;11.83;;;18.90;99.90;;;;;;5095664;28;20496;-81
2021/09/09 01:55:33;;;;;;;18.60;11.30;;;18.90;99.90;;;;;;5095870;28;20515;-81
2021/09/09 01:58:00;;;;;;;24.23;12.30;;;18.90;99.90;;;;;;5096404;28;20465;-81
2021/09/09 02:00:29;;;;;;;16.47;12.23;;;18.90;99.90;;;;;;5096480;28;21043;-82
2021/09/09 02:02:56;;;;;;;20.83;13.40;;;18.90;99.90;;;;;;5089878;28;20465;-82
2021/09/09 02:05:24;;;;;;;24.63;13.77;;;18.90;99.90;;;;;;5097592;28;20493;-82
2021/09/09 02:07:51;;;;;;;23.87;12.67;;;18.90;99.90;;;;;;5097377;28;20551;-81
2021/09/09 02:10:20;;;;;;;18.40;12.70;;;18.90;99.90;;;;;;5094171;28;20488;-82
2021/09/09 02:12:48;;;;;;;19.00;12.70;;;18.90;99.90;;;;;;5097482;28;20484;-80
2021/09/09 02:15:15;;;;;;;21.20;12.13;;;18.80;99.90;;;;;;5097309;28;20526;-82
2021/09/09 02:17:44;;;;;;;19.23;12.07;;;18.80;99.90;;;;;;5103816;28;20457;-81
2021/09/09 02:20:13;;;;;;;20.43;12.00;;;18.80;99.90;;;;;;5096898;28;21207;-82
2021/09/09 02:22:42;;;;;;;29.37;13.50;;;18.70;99.90;;;;;;5099205;28;20485;-81
2021/09/09 02:25:10;;;;;;;19.00;11.40;;;18.70;99.90;;;;;;5098766;28;20460;-81
2021/09/09 02:27:39;;;;;;;17.63;12.20;;;18.80;99.90;;;;;;5097894;28;20500;-83
2021/09/09 02:30:07;;;;;;;20.53;12.97;;;18.70;99.90;;;;;;5095416;28;20506;-82
2021/09/09 02:32:35;;;;;;;16.27;12.70;;;18.80;99.90;;;;;;5096290;28;20615;-81
2021/09/09 02:35:05;;;;;;;17.37;12.80;;;18.70;99.90;;;;;;5101388;28;20449;-82
2021/09/09 02:37:33;;;;;;;19.50;12.13;;;18.80;99.90;;;;;;5094137;28;20461;-82
2021/09/09 02:40:00;;;;;;;21.47;14.20;;;18.80;99.90;;;;;;5094073;28;20458;-81
2021/09/09 02:42:28;;;;;;;21.30;12.40;;;18.70;99.90;;;;;;5088675;28;21272;-82
2021/09/09 02:44:54;;;;;;;24.03;13.50;;;18.80;99.90;;;;;;5101753;28;20487;-80
2021/09/09 02:47:21;;;;;;;20.30;12.57;;;18.80;99.90;;;;;;5092908;28;20536;-82
2021/09/09 02:49:48;;;;;;;17.13;11.90;;;18.80;99.90;;;;;;5098203;28;20461;-81
2021/09/09 02:52:18;;;;;;;25.43;14.33;;;18.70;99.90;;;;;;5092363;28;20480;-81
2021/09/09 02:54:45;;;;;;;19.13;12.43;;;18.70;99.90;;;;;;5094307;28;20563;-81
2021/09/09 02:57:12;;;;;;;21.20;12.37;;;18.70;99.90;;;;;;5097891;28;20449;-81
2021/09/09 02:59:40;;;;;;;18.33;12.10;;;18.70;99.90;;;;;;5100751;28;20963;-81
2021/09/09 03:02:07;;;;;;;22.87;13.23;;;18.70;99.90;;;;;;5095575;28;20511;-82
2021/09/09 03:04:34;;;;;;;27.90;13.60;;;18.70;99.90;;;;;;5096030;28;20969;-81
2021/09/09 03:07:01;;;;;;;17.50;11.83;;;18.70;99.90;;;;;;5093615;28;20466;-81
2021/09/09 03:09:29;;;;;;;18.63;11.97;;;18.70;99.90;;;;;;5087415;28;20465;-81
2021/09/09 03:11:56;;;;;;;20.00;13.70;;;18.70;99.90;;;;;;5088006;28;20486;-81
2021/09/09 03:14:23;;;;;;;15.63;11.83;;;18.70;99.90;;;;;;5097209;28;20880;-81
2021/09/09 03:16:50;;;;;;;15.63;12.00;;;18.70;99.90;;;;;;5096300;28;20458;-83
2021/09/09 03:19:18;;;;;;;17.80;11.67;;;18.80;99.90;;;;;;5095616;28;20858;-82
2021/09/09 03:21:45;;;;;;;20.13;13.23;;;18.70;99.90;;;;;;5093521;28;20477;-81
2021/09/09 03:24:13;;;;;;;15.30;11.27;;;18.80;99.90;;;;;;5093070;28;20466;-82
2021/09/09 03:26:41;;;;;;;18.03;12.70;;;18.80;99.90;;;;;;5094712;28;20519;-81
2021/09/09 03:29:08;;;;;;;21.77;12.20;;;18.80;99.90;;;;;;5092559;28;21023;-82
2021/09/09 03:31:35;;;;;;;15.87;12.90;;;18.80;99.90;;;;;;5096756;28;20484;-81
2021/09/09 03:34:02;;;;;;;19.70;12.40;;;18.80;99.90;;;;;;5093746;28;20465;-82
2021/09/09 03:36:29;;;;;;;15.90;11.93;;;18.80;99.90;;;;;;5094603;28;20479;-82
2021/09/09 03:38:57;;;;;;;19.80;13.40;;;18.80;99.90;;;;;;5096161;28;20466;-81
2021/09/09 03:41:24;;;;;;;20.03;12.97;;;18.80;99.90;;;;;;5096133;28;20457;-83
2021/09/09 03:43:53;;;;;;;18.40;12.80;;;18.80;99.90;;;;;;5097754;28;20544;-81
2021/09/09 03:46:20;;;;;;;20.57;13.07;;;18.80;99.90;;;;;;5094371;28;20975;-83
2021/09/09 03:48:47;;;;;;;16.13;12.10;;;18.90;99.90;;;;;;5095001;28;20462;-82
2021/09/09 03:51:15;;;;;;;18.93;12.37;;;18.90;99.90;;;;;;5096145;28;20562;-82
2021/09/09 03:53:42;;;;;;;17.80;13.17;;;18.80;99.90;;;;;;5095916;28;20461;-82
2021/09/09 03:56:09;;;;;;;15.40;12.87;;;18.90;99.90;;;;;;5091927;28;20457;-82
2021/09/09 03:58:36;;;;;;;21.50;14.50;;;18.80;99.90;;;;;;5099223;28;20467;-81
2021/09/09 04:01:05;;;;;;;20.07;12.37;;;18.80;99.90;;;;;;5102354;28;20461;-82
2021/09/09 04:03:32;;;;;;;24.03;13.70;;;18.80;99.90;;;;;;5098412;28;20469;-82
2021/09/09 04:05:59;;;;;;;20.37;12.43;;;18.80;99.90;;;;;;5099767;28;20452;-82
2021/09/09 04:08:26;;;;;;;15.90;12.20;;;18.80;99.90;;;;;;5095212;28;20475;-83
2021/09/09 04:10:52;;;;;;;18.80;12.73;;;18.80;99.90;;;;;;5095024;28;20811;-81
2021/09/09 04:13:19;;;;;;;18.67;12.50;;;18.80;99.90;;;;;;5104052;28;20484;-81
2021/09/09 04:15:46;;;;;;;21.77;13.70;;;18.80;99.90;;;;;;5101485;28;20931;-82
2021/09/09 04:18:15;;;;;;;23.60;14.30;;;18.80;99.90;;;;;;5097656;28;20466;-81
2021/09/09 04:20:43;;;;;;;16.10;12.80;;;18.80;99.90;;;;;;5096828;28;20526;-81
2021/09/09 04:23:10;;;;;;;17.77;13.27;;;18.80;99.90;;;;;;5094566;28;20548;-82
2021/09/09 04:25:37;;;;;;;20.70;13.07;;;18.80;99.90;;;;;;5095096;28;20470;-81
2021/09/09 04:28:05;;;;;;;22.87;13.23;;;18.80;99.90;;;;;;5099071;28;20533;-80
2021/09/09 04:30:31;;;;;;;18.57;13.00;;;18.80;99.90;;;;;;5099761;28;20465;-81
2021/09/09 04:32:59;;;;;;;18.73;11.90;;;18.80;99.90;;;;;;5096735;28;20498;-81
2021/09/09 04:35:28;;;;;;;14.93;13.30;;;18.80;99.90;;;;;;5096220;28;21225;-82
2021/09/09 04:37:55;;;;;;;21.57;14.60;;;18.80;99.90;;;;;;5098844;28;20463;-81
2021/09/09 04:40:22;;;;;;;26.10;12.87;;;18.80;99.90;;;;;;5090210;28;20961;-82
2021/09/09 04:42:49;;;;;;;21.10;13.87;;;18.80;99.90;;;;;;5090937;28;20469;-82
2021/09/09 04:45:16;;;;;;;18.43;13.30;;;18.80;99.90;;;;;;5100459;28;20462;-81
2021/09/09 04:47:43;;;;;;;24.53;13.50;;;18.90;99.90;;;;;;5100615;28;20834;-81
2021/09/09 04:50:10;;;;;;;24.40;12.17;;;18.90;99.90;;;;;;5101496;28;20461;-83
2021/09/09 04:52:39;;;;;;;17.47;13.10;;;18.80;99.90;;;;;;5093114;28;20496;-81
2021/09/09 04:55:37;;;;;;;21.93;13.23;;;18.80;99.90;;;;;;5094733;28;20449;-80
2021/09/09 04:58:04;;;;;;;20.50;13.37;;;18.80;99.90;;;;;;5096765;28;20456;-81
2021/09/09 05:00:31;;;;;;;22.97;15.17;;;18.80;99.90;;;;;;5099325;28;20450;-81
2021/09/09 05:02:58;;;;;;;23.73;13.97;;;18.80;99.90;;;;;;5098642;28;20465;-81
2021/09/09 05:05:25;;;;;;;17.07;12.90;;;18.70;99.90;;;;;;5097529;28;20851;-81
2021/09/09 05:07:54;;;;;;;23.07;13.30;;;18.70;99.90;;;;;;5105570;28;20457;-83
2021/09/09 05:10:21;;;;;;;23.90;13.17;;;18.70;99.90;;;;;;5089960;28;20468;-82
2021/09/09 05:12:48;;;;;;;19.90;14.40;;;18.70;99.90;;;;;;5104130;28;20500;-81
2021/09/09 05:15:15;;;;;;;23.70;13.47;;;18.70;99.90;;;;;;5095776;28;20497;-81
2021/09/09 05:17:42;;;;;;;22.40;13.10;;;18.70;99.90;;;;;;5096966;28;20458;-82
2021/09/09 05:20:11;;;;;;;19.33;13.07;;;18.70;99.90;;;;;;5092443;28;20488;-82
2021/09/09 05:22:38;;;;;;;24.90;14.27;;;18.70;99.90;;;;;;5103662;28;20555;-82
2021/09/09 05:25:07;;;;;;;26.13;13.40;;;18.70;99.90;;;;;;5099056;28;20449;-81
2021/09/09 05:27:35;;;;;;;19.93;12.33;;;18.70;99.90;;;;;;5098649;28;20493;-82
2021/09/09 05:30:01;;;;;;;19.90;13.37;;;18.70;99.90;;;;;;5095036;28;20555;-83
2021/09/09 05:32:31;;;;;;;19.13;13.77;;;18.70;99.90;;;;;;5095590;28;20480;-81
2021/09/09 05:34:58;;;;;;;22.63;13.40;;;18.80;99.90;;;;;;5102132;28;20465;-82
2021/09/09 05:37:25;;;;;;;18.73;14.20;;;18.80;99.90;;;;;;5095927;27;20464;-82
2021/09/09 05:39:52;;;;;;;19.20;12.53;;;18.80;99.90;;;;;;5103861;28;20456;-81
2021/09/09 05:42:20;;;;;;;23.37;14.40;;;18.90;99.90;;;;;;5096503;28;20457;-81
2021/09/09 05:44:48;;;;;;;23.20;14.20;;;18.90;99.90;;;;;;5096969;28;20840;-82
2021/09/09 05:47:15;;;;;;;22.80;13.43;;;18.90;99.90;;;;;;5097088;28;20983;-83
2021/09/09 05:49:42;;;;;;;22.07;13.77;;;19.00;99.90;;;;;;5092448;28;20545;-81
2021/09/09 05:52:10;;;;;;;22.17;13.47;;;19.00;99.90;;;;;;5098991;28;21049;-82
2021/09/09 05:54:37;;;;;;;21.70;13.23;;;19.00;99.90;;;;;;5095308;28;20465;-82
2021/09/09 05:57:05;;;;;;;22.20;14.50;;;19.10;99.90;;;;;;5091653;28;20501;-81
2021/09/09 05:59:35;;;;;;;24.07;16.43;;;19.10;99.90;;;;;;5097088;28;20931;-83
2021/09/09 06:02:02;;;;;;;19.30;13.77;;;19.10;99.90;;;;;;5094196;28;20458;-83
2021/09/09 06:04:34;;;;;;;25.57;13.57;;;19.10;99.90;;;;;;5092736;28;20533;-82
2021/09/09 06:07:02;;;;;;;24.63;12.67;;;19.10;99.90;;;;;;5098925;28;20454;-81
2021/09/09 06:09:30;;;;;;;18.17;14.07;;;19.10;99.90;;;;;;5095813;28;20467;-83
2021/09/09 06:11:57;;;;;;;17.97;14.47;;;19.10;99.90;;;;;;5095355;28;20462;-82
2021/09/09 06:14:24;;;;;;;21.50;12.30;;;19.20;99.90;;;;;;5098375;28;20456;-81
2021/09/09 06:16:53;;;;;;;18.63;14.33;;;19.20;99.90;;;;;;5101559;28;20465;-82
2021/09/09 06:19:20;;;;;;;24.50;14.13;;;19.20;99.90;;;;;;5099096;28;20454;-82
2021/09/09 06:21:46;;;;;;;20.83;14.47;;;19.20;99.90;;;;;;5095919;28;20504;-83
2021/09/09 06:24:13;;;;;;;20.57;14.40;;;19.20;99.90;;;;;;5093074;28;20814;-81
2021/09/09 06:26:41;;;;;;;17.50;13.90;;;19.20;99.90;;;;;;5096317;28;20941;-82
2021/09/09 06:29:08;;;;;;;17.67;13.10;;;19.20;99.90;;;;;;5097749;28;20467;-82
2021/09/09 06:31:35;;;;;;;19.80;13.57;;;19.30;99.90;;;;;;5099391;28;20707;-82
2021/09/09 06:34:04;;;;;;;22.00;13.33;;;19.30;99.90;;;;;;5094919;28;20489;-82
2021/09/09 06:36:31;;;;;;;24.30;13.20;;;19.30;99.90;;;;;;5099923;28;20468;-82
2021/09/09 06:38:59;;;;;;;20.73;13.77;;;19.40;99.90;;;;;;5092402;28;20470;-82
2021/09/09 06:41:27;;;;;;;20.30;13.33;;;19.40;99.90;;;;;;5099258;28;21210;-82
2021/09/09 06:43:54;;;;;;;29.20;13.77;;;19.40;99.90;;;;;;5096362;28;20472;-83
2021/09/09 06:46:21;;;;;;;22.57;13.63;;;19.50;99.90;;;;;;5094229;28;20456;-73
2021/09/09 06:48:48;;;;;;;17.47;13.10;;;19.50;99.90;;;;;;5094415;28;20458;-73
2021/09/09 06:51:19;;;;;;;21.27;12.60;;;19.60;99.90;;;;;;5096365;28;20470;-73
2021/09/09 06:53:46;;;;;;;20.63;13.93;;;19.70;99.90;;;;;;5089019;28;20503;-73
2021/09/09 06:56:12;;;;;;;21.00;13.37;;;19.70;99.90;;;;;;5096591;28;20456;-73
2021/09/09 06:58:40;;;;;;;30.47;13.90;;;19.80;99.90;;;;;;5097791;28;20458;-73
2021/09/09 07:01:08;;;;;;;28.07;12.67;;;19.80;99.90;;;;;;5095620;28;20457;-73
2021/09/09 07:03:35;;;;;;;29.40;13.70;;;19.90;99.90;;;;;;5096411;28;20465;-73
2021/09/09 07:06:02;;;;;;;24.87;13.80;;;20.00;99.90;;;;;;5092702;28;20457;-75
2021/09/09 07:08:30;;;;;;;21.97;12.10;;;20.10;99.90;;;;;;5091211;28;20461;-73
2021/09/09 07:10:57;;;;;;;26.13;12.60;;;20.10;99.90;;;;;;5093673;28;20473;-73
2021/09/09 07:13:28;;;;;;;30.30;12.53;;;20.20;99.90;;;;;;5100027;28;20492;-73
2021/09/09 07:15:55;;;;;;;24.97;12.73;;;20.30;99.90;;;;;;5096022;28;20564;-73
2021/09/09 07:18:22;;;;;;;25.87;13.97;;;20.30;99.90;;;;;;5095901;28;20470;-73
2021/09/09 07:20:49;;;;;;;20.23;11.00;;;20.40;99.90;;;;;;5094186;28;20480;-73
2021/09/09 07:23:16;;;;;;;21.73;12.43;;;20.40;99.90;;;;;;5091709;28;20473;-73
2021/09/09 07:25:44;;;;;;;22.60;13.40;;;20.50;99.90;;;;;;5094382;28;20948;-73
2021/09/09 07:28:11;;;;;;;22.50;11.67;;;20.50;99.90;;;;;;5093070;28;20492;-73
2021/09/09 07:30:38;;;;;;;17.60;12.27;;;20.60;99.90;;;;;;5089010;28;20459;-73
2021/09/09 07:33:06;;;;;;;25.13;11.57;;;20.60;99.90;;;;;;5094459;28;20484;-73
2021/09/09 07:35:33;;;;;;;22.77;14.27;;;20.70;99.90;;;;;;5099192;28;20454;-73
2021/09/09 07:38:00;;;;;;;19.87;12.37;;;20.70;99.90;;;;;;5099887;28;20497;-73
2021/09/09 07:40:27;;;;;;;25.33;12.20;;;20.80;99.90;;;;;;5096483;28;20469;-73
2021/09/09 07:42:55;;;;;;;22.10;10.70;;;20.80;99.90;;;;;;5102669;28;20461;-73
2021/09/09 07:45:23;;;;;;;19.63;12.00;;;20.90;99.90;;;;;;5102701;28;20461;-73
2021/09/09 07:47:50;;;;;;;28.00;11.73;;;20.90;99.90;;;;;;5101191;28;20483;-73
2021/09/09 07:50:17;;;;;;;27.23;11.30;;;21.00;99.90;;;;;;5102715;28;20456;-72
2021/09/09 07:52:45;;;;;;;17.57;10.10;;;21.00;99.90;;;;;;5099716;28;20590;-73
2021/09/09 07:55:12;;;;;;;19.03;9.97;;;21.00;99.90;;;;;;5107504;27;20560;-73
2021/09/09 07:57:42;;;;;;;25.83;11.30;;;21.10;99.90;;;;;;5103496;27;20472;-73
2021/09/09 08:00:12;;;;;;;25.23;10.73;;;21.20;99.90;;;;;;5096342;28;20887;-73
2021/09/09 08:02:39;;;;;;;25.63;10.57;;;21.20;99.90;;;;;;5100144;28;21137;-73
2021/09/09 08:05:07;;;;;;;22.37;11.17;;;21.20;99.90;;;;;;5100357;28;20819;-72
2021/09/09 08:07:39;;;;;;;19.80;10.43;;;21.30;99.90;;;;;;5093752;28;20912;-72
2021/09/09 08:10:08;;;;;;;20.57;9.57;;;21.30;99.90;;;;;;5095097;28;20513;-73
2021/09/09 08:12:35;;;;;;;17.30;10.20;;;21.40;99.90;;;;;;5098492;28;20549;-81
2021/09/09 08:15:03;;;;;;;26.07;11.23;;;21.40;99.90;;;;;;5097217;28;20456;-82
2021/09/09 08:17:32;;;;;;;20.13;10.27;;;21.50;99.90;;;;;;5102433;27;20461;-81
2021/09/09 08:20:00;;;;;;;22.87;9.93;;;21.50;99.90;;;;;;5096582;28;20477;-81
2021/09/09 08:22:27;;;;;;;20.97;9.90;;;21.60;99.90;;;;;;5093871;27;20486;-82
2021/09/09 08:24:54;;;;;;;26.83;11.00;;;21.60;99.90;;;;;;5095332;27;20469;-82
2021/09/09 08:27:22;;;;;;;29.30;11.43;;;21.60;99.90;;;;;;5095112;28;20489;-83
2021/09/09 08:29:50;;;;;;;22.90;11.33;;;21.70;99.90;;;;;;5097074;28;20457;-83
2021/09/09 08:32:17;;;;;;;30.57;10.80;;;21.70;99.90;;;;;;5096710;28;20456;-81
2021/09/09 08:34:46;;;;;;;24.27;9.80;;;21.80;99.90;;;;;;5099102;28;20992;-83
2021/09/09 08:37:13;;;;;;;21.37;11.50;;;21.90;99.90;;;;;;5100213;27;20466;-83
2021/09/09 08:39:40;;;;;;;22.30;11.67;;;21.90;99.90;;;;;;5097970;28;20797;-82
2021/09/09 08:42:07;;;;;;;25.50;11.70;;;22.00;99.90;;;;;;5097915;28;20460;-83
2021/09/09 08:44:34;;;;;;;25.30;10.33;;;22.10;99.90;;;;;;5100202;27;20469;-82
2021/09/09 08:47:01;;;;;;;33.13;11.20;;;22.20;99.90;;;;;;5095786;28;20469;-83
2021/09/09 08:49:30;;;;;;;16.87;10.30;;;22.20;99.90;;;;;;5103510;28;20453;-82
2021/09/09 08:51:59;;;;;;;11.47;10.30;;;22.30;99.90;;;;;;5090189;28;20497;-82
2021/09/09 08:54:26;;;;;;;10.93;8.10;;;22.40;99.90;;;;;;5094706;28;20497;-82
2021/09/09 08:56:54;;;;;;;11.87;8.60;;;22.40;99.90;;;;;;5090708;28;20462;-83
2021/09/09 08:59:21;;;;;;;10.20;9.10;;;22.50;99.90;;;;;;5088906;28;21143;-82
2021/09/09 09:02:05;;;;;;;12.17;9.50;;;22.60;99.90;;;;;;5098769;28;20460;-84
2021/09/09 09:04:33;;;;;;;10.87;9.67;;;22.60;99.90;;;;;;5090737;28;20461;-83
2021/09/09 09:07:02;;;;;;;22.00;10.00;;;22.70;99.90;;;;;;5092314;28;20462;-82
2021/09/09 09:09:33;;;;;;;15.27;10.50;;;22.80;99.90;;;;;;5094427;28;20464;-82
2021/09/09 09:12:01;;;;;;;15.40;9.53;;;22.90;99.90;;;;;;5093567;28;20819;-83
2021/09/09 09:14:28;;;;;;;9.00;8.10;;;22.90;99.90;;;;;;5093880;28;20505;-84
2021/09/09 09:16:57;;;;;;;10.33;9.33;;;23.00;99.90;;;;;;5098804;27;20960;-82
2021/09/09 09:19:26;;;;;;;11.50;9.43;;;23.10;99.90;;;;;;5099310;27;20733;-83
2021/09/09 09:21:54;;;;;;;11.10;9.07;;;23.10;99.90;;;;;;5098607;28;20485;-84
2021/09/09 09:24:31;;;;;;;11.50;9.30;;;23.30;99.90;;;;;;5097698;28;20452;-82
2021/09/09 09:27:07;;;;;;;10.10;9.10;;;23.30;99.90;;;;;;5096879;28;20480;-83
2021/09/09 09:29:34;;;;;;;11.37;9.07;;;23.40;99.90;;;;;;5091248;27;20471;-82
2021/09/09 09:32:15;;;;;;;12.30;8.43;;;23.50;99.90;;;;;;5093369;28;20465;-83
2021/09/09 09:34:44;;;;;;;10.97;9.03;;;23.60;99.90;;;;;;5090977;28;20488;-84
2021/09/09 09:37:12;;;;;;;10.63;8.30;;;23.70;99.90;;;;;;5090670;28;20457;-83
2021/09/09 09:39:45;;;;;;;17.60;8.70;;;23.80;99.90;;;;;;5093075;28;20919;-84
2021/09/09 09:42:12;;;;;;;10.30;8.90;;;23.80;99.90;;;;;;5092302;28;20461;-83
2021/09/09 09:44:41;;;;;;;13.20;9.10;;;23.80;99.90;;;;;;5093591;27;20458;-81
2021/09/09 09:47:11;;;;;;;15.17;8.00;;;23.90;99.90;;;;;;5094121;28;21038;-82
2021/09/09 09:49:42;;;;;;;10.50;8.77;;;23.90;99.90;;;;;;5089274;28;20953;-81
2021/09/09 09:52:13;;;;;;;10.13;9.10;;;24.00;99.90;;;;;;5091288;28;20462;-82
2021/09/09 09:54:50;;;;;;;12.00;8.67;;;24.00;99.90;;;;;;5094527;28;20550;-81
2021/09/09 09:57:18;;;;;;;8.90;8.00;;;24.20;99.90;;;;;;5089754;28;20445;-83
2021/09/09 09:59:45;;;;;;;10.30;9.30;;;24.20;99.90;;;;;;5088650;28;20462;-82
2021/09/09 10:02:12;;;;;;;12.90;9.40;;;24.30;99.90;;;;;;5092907;28;20469;-82
2021/09/09 10:04:43;;;;;;;10.20;8.80;;;24.40;99.90;;;;;;5088658;28;20814;-84
2021/09/09 10:07:11;;;;;;;12.77;9.40;;;24.50;99.90;;;;;;5089447;28;20464;-83
2021/09/09 10:09:38;;;;;;;9.40;8.40;;;24.50;99.90;;;;;;5090276;28;20466;-82
2021/09/09 10:12:08;;;;;;;11.17;8.43;;;24.50;99.90;;;;;;5087404;28;20465;-83
2021/09/09 10:14:36;;;;;;;12.50;9.50;;;24.50;99.90;;;;;;5087087;28;20484;-83
2021/09/09 10:17:04;;;;;;;10.70;9.03;;;24.60;99.90;;;;;;5093578;28;20477;-82
2021/09/09 10:19:33;;;;;;;13.90;9.70;;;24.60;99.90;;;;;;5090579;28;20492;-82
2021/09/09 10:22:12;;;;;;;12.83;9.70;;;24.60;99.90;;;;;;5093558;28;20582;-82
2021/09/09 10:24:41;;;;;;;9.70;8.70;;;24.70;99.90;;;;;;5088192;28;20457;-82
2021/09/09 10:27:32;;;;;;;11.13;9.83;;;24.80;99.90;;;;;;5087099;28;20489;-82
2021/09/09 10:30:04;;;;;;;10.87;9.77;;;24.80;99.90;;;;;;5092935;28;20483;-83
2021/09/09 10:32:54;;;;;;;12.40;8.80;;;24.80;99.90;;;;;;5087219;28;20666;-84
2021/09/09 10:35:32;;;;;;;10.57;8.40;;;24.90;99.90;;;;;;5086430;28;20493;-82
2021/09/09 10:38:16;;;;;;;15.47;8.57;;;24.90;99.90;;;;;;5088785;28;20467;-83
2021/09/09 10:40:46;;;;;;;12.17;8.63;;;24.90;99.90;;;;;;5087850;28;20506;-82
2021/09/09 10:43:37;;;;;;;8.93;8.03;;;25.00;99.90;;;;;;5092744;28;20483;-82
2021/09/09 10:46:05;;;;;;;10.00;8.13;;;25.00;99.90;;;;;;5090633;28;20453;-83
2021/09/09 10:48:33;;;;;;;7.57;6.87;;;25.00;99.90;;;;;;5087134;28;21153;-83
2021/09/09 10:51:02;;;;;;;8.80;6.97;;;25.10;99.90;;;;;;5090326;28;20469;-82
2021/09/09 10:53:36;;;;;;;8.50;6.97;;;25.20;99.90;;;;;;5089812;28;20461;-82
2021/09/09 10:56:10;;;;;;;14.53;6.87;;;25.20;99.90;;;;;;5090243;28;20497;-82
2021/09/09 10:58:39;;;;;;;12.27;6.60;;;25.30;99.90;;;;;;5089307;28;20890;-84
2021/09/09 11:01:07;;;;;;;11.17;6.60;;;25.30;99.90;;;;;;5087248;28;20461;-82
2021/09/09 11:03:39;;;;;;;7.13;6.40;;;25.40;99.90;;;;;;5087826;28;20462;-82
2021/09/09 11:06:07;;;;;;;8.63;6.30;;;25.50;99.90;;;;;;5090090;28;21248;-82
2021/09/09 11:08:34;;;;;;;9.00;6.53;;;25.50;99.90;;;;;;5093835;28;20466;-84
2021/09/09 11:11:03;;;;;;;8.17;7.00;;;25.60;99.90;;;;;;5087384;28;20480;-83
2021/09/09 11:13:33;;;;;;;13.07;6.80;;;25.60;99.90;;;;;;5089640;28;20465;-84
2021/09/09 11:16:01;;;;;;;7.03;6.10;;;25.60;99.90;;;;;;5085110;28;20461;-82
2021/09/09 11:18:30;;;;;;;6.63;5.83;;;25.70;99.90;;;;;;5087481;28;20564;-84
2021/09/09 11:21:05;;;;;;;7.10;5.60;;;25.80;99.90;;;;;;5078604;28;21297;-83
2021/09/09 11:23:32;;;;;;;5.93;5.20;;;25.80;99.90;;;;;;5082683;28;20461;-83
2021/09/09 11:26:10;;;;;;;8.93;4.53;;;25.80;99.90;;;;;;5091176;28;20472;-81
2021/09/09 11:28:37;;;;;;;7.50;4.33;;;25.90;99.90;;;;;;5090806;28;20486;-82
2021/09/09 11:31:17;;;;;;;4.70;4.30;;;25.90;99.90;;;;;;5091812;28;20466;-82
2021/09/09 11:33:51;;;;;;;7.67;4.60;;;25.90;99.90;;;;;;5087604;28;22570;-85
2021/09/09 11:36:19;;;;;;;9.77;5.47;;;25.90;99.90;;;;;;5092399;28;20465;-84
2021/09/09 11:38:47;;;;;;;6.60;5.90;;;25.90;99.90;;;;;;5090879;28;20457;-84
2021/09/09 11:41:16;;;;;;;6.70;4.93;;;25.90;99.90;;;;;;5086335;28;20456;-82
2021/09/09 11:43:49;;;;;;;5.70;5.10;;;25.90;99.90;;;;;;5088615;28;20534;-82
2021/09/09 11:46:30;;;;;;;5.80;5.23;;;25.90;99.90;;;;;;5091210;28;21093;-82
2021/09/09 11:48:58;;;;;;;6.40;4.50;;;25.90;99.90;;;;;;5093481;28;20465;-82
2021/09/09 11:51:37;;;;;;;8.20;4.43;;;25.90;99.90;;;;;;5099044;28;20492;-84
2021/09/09 11:54:06;;;;;;;5.70;3.90;;;25.90;99.90;;;;;;5098026;28;20568;-82
2021/09/09 11:56:34;;;;;;;4.93;4.43;;;25.90;99.90;;;;;;5087992;28;20463;-82
2021/09/09 11:59:03;;;;;;;5.13;4.60;;;25.90;99.90;;;;;;5086590;28;20464;-82
2021/09/09 12:01:38;;;;;;;4.93;4.43;;;25.90;99.90;;;;;;5088818;28;20458;-83
2021/09/09 12:04:06;;;;;;;5.97;4.40;;;25.90;99.90;;;;;;5086223;28;20465;-83
2021/09/09 12:06:34;;;;;;;5.70;3.97;;;25.90;99.90;;;;;;5098377;28;20510;-81
2021/09/09 12:09:03;;;;;;;6.17;3.90;;;26.00;99.90;;;;;;5089711;28;20462;-83
2021/09/09 12:11:33;;;;;;;5.30;4.37;;;26.00;99.90;;;;;;5088334;28;20471;-83
2021/09/09 12:14:15;;;;;;;5.37;4.13;;;26.10;99.90;;;;;;5086762;28;20472;-82
2021/09/09 12:16:44;;;;;;;4.53;3.97;;;26.10;99.90;;;;;;5086455;28;20457;-82
2021/09/09 12:19:11;;;;;;;6.80;4.70;;;26.20;99.90;;;;;;5091602;28;20864;-82
2021/09/09 12:21:52;;;;;;;5.10;4.17;;;26.20;99.90;;;;;;5096608;28;20488;-83
2021/09/09 12:24:27;;;;;;;5.50;5.00;;;26.30;99.90;;;;;;5095051;28;20457;-83
2021/09/09 12:26:59;;;;;;;4.57;4.03;;;26.30;99.90;;;;;;5096832;28;21022;-82
2021/09/09 12:29:34;;;;;;;4.33;3.87;;;26.30;99.90;;;;;;5089784;28;20539;-82
2021/09/09 12:32:03;;;;;;;7.93;4.13;;;26.30;99.90;;;;;;5093274;28;20457;-82
2021/09/09 12:34:37;;;;;;;6.57;4.10;;;26.30;99.90;;;;;;5103891;28;20487;-82
2021/09/09 12:37:15;;;;;;;6.53;5.03;;;26.40;99.90;;;;;;5097986;28;20472;-83
2021/09/09 12:39:46;;;;;;;6.80;4.67;;;26.40;99.90;;;;;;5089875;28;20457;-82